Time;durP1;ratioP1;P1;durP2;ratioP2;P2;SDS_P1;SDS_P2;PMS_P1;PMS_P2;Temp;Humidity;BMP_temperature;BMP_pressure;BME280_temperature;BME280_humidity;BME280_pressure;Samples;Min_cycle;Max_cycle;Signal;HPM_P1;HPM_P2
2022/11/15 00:03:46;;;;;;;4.78;2.72;;;11.80;99.90;;;;;;10080894;28;20125;-63
2022/11/15 00:08:37;;;;;;;6.35;2.50;;;11.80;99.90;;;;;;10074897;28;20458;-63
2022/11/15 00:13:28;;;;;;;7.70;3.38;;;11.80;99.90;;;;;;10069264;28;20544;-64
2022/11/15 00:18:19;;;;;;;8.43;3.33;;;11.90;99.90;;;;;;10082824;28;20064;-64
2022/11/15 00:23:10;;;;;;;6.22;3.55;;;11.80;99.90;;;;;;10087088;28;20526;-63
2022/11/15 00:28:01;;;;;;;5.90;3.20;;;11.90;99.90;;;;;;10079433;28;20028;-63
2022/11/15 00:32:52;;;;;;;5.10;3.80;;;11.90;99.90;;;;;;10082477;28;20499;-64
2022/11/15 00:37:43;;;;;;;7.97;3.10;;;11.90;99.90;;;;;;10085296;28;20033;-64
2022/11/15 00:42:33;;;;;;;5.05;3.22;;;11.90;99.90;;;;;;10085999;28;20029;-64
2022/11/15 00:47:24;;;;;;;7.10;2.92;;;11.90;99.90;;;;;;10078008;28;21090;-64
2022/11/15 00:52:14;;;;;;;5.40;3.47;;;11.90;99.90;;;;;;10081200;28;20237;-64
2022/11/15 00:57:05;;;;;;;4.13;2.95;;;11.90;99.90;;;;;;10074107;28;20122;-65
2022/11/15 01:01:56;;;;;;;4.70;3.05;;;12.00;99.90;;;;;;10071563;28;20081;-63
2022/11/15 01:06:46;;;;;;;5.45;3.17;;;12.00;99.90;;;;;;10083606;28;20086;-64
2022/11/15 01:11:37;;;;;;;8.15;2.75;;;11.90;99.90;;;;;;10073567;28;20083;-63
2022/11/15 01:16:28;;;;;;;5.63;2.70;;;11.90;99.90;;;;;;10074566;28;20340;-63
2022/11/15 01:21:19;;;;;;;10.27;2.80;;;11.90;99.90;;;;;;10075522;28;20321;-64
2022/11/15 01:26:12;;;;;;;5.97;3.30;;;11.90;99.90;;;;;;10084246;28;20312;-64
2022/11/15 01:31:06;;;;;;;4.82;2.92;;;11.90;99.90;;;;;;10081902;28;20025;-64
2022/11/15 01:35:57;;;;;;;6.95;3.25;;;11.90;99.90;;;;;;10076152;28;20111;-65
2022/11/15 01:40:47;;;;;;;5.07;2.85;;;11.90;99.90;;;;;;10087589;28;20069;-64
2022/11/15 01:45:38;;;;;;;6.15;3.13;;;11.90;99.90;;;;;;10096792;28;20041;-68
2022/11/15 01:50:32;;;;;;;6.47;3.45;;;12.00;99.90;;;;;;10093614;28;20039;-65
2022/11/15 01:55:25;;;;;;;6.75;3.38;;;11.90;99.90;;;;;;10081019;28;20449;-69
2022/11/15 02:00:16;;;;;;;6.05;3.13;;;11.90;99.90;;;;;;10085423;28;20022;-65
2022/11/15 02:05:07;;;;;;;5.07;2.80;;;12.00;99.90;;;;;;10083477;28;20204;-67
2022/11/15 02:10:09;;;;;;;5.53;3.15;;;12.00;99.90;;;;;;10090138;28;20033;-63
2022/11/15 02:15:00;;;;;;;6.95;3.17;;;12.00;99.90;;;;;;10078046;28;20454;-67
2022/11/15 02:20:39;;;;;;;6.35;3.05;;;12.00;99.90;;;;;;10084457;28;20021;-64
2022/11/15 02:25:50;;;;;;;4.22;2.90;;;12.10;99.90;;;;;;10074678;28;20029;-64
2022/11/15 02:31:04;;;;;;;5.15;3.08;;;12.10;99.90;;;;;;10071951;28;20033;-65
2022/11/15 02:36:05;;;;;;;4.93;2.97;;;12.10;99.90;;;;;;10073793;28;20495;-63
2022/11/15 02:41:10;;;;;;;5.18;2.75;;;12.10;99.90;;;;;;10086314;28;20037;-68
2022/11/15 02:46:14;;;;;;;4.57;3.17;;;12.10;99.90;;;;;;10081771;28;20083;-69
2022/11/15 02:51:06;;;;;;;3.67;3.13;;;12.10;99.90;;;;;;10086912;28;20202;-68
2022/11/15 02:55:57;;;;;;;6.13;4.45;;;12.00;99.90;;;;;;10080748;28;20048;-62
2022/11/15 03:01:20;;;;;;;7.10;3.33;;;12.10;99.90;;;;;;10090373;28;20067;-68
2022/11/15 03:06:35;;;;;;;4.78;3.45;;;12.10;99.90;;;;;;10022168;28;20060;-67
2022/11/15 03:11:25;;;;;;;6.82;3.25;;;12.10;99.90;;;;;;10096996;28;20250;-63
2022/11/15 03:16:41;;;;;;;4.43;3.08;;;12.10;99.90;;;;;;10098265;28;20060;-68
2022/11/15 03:21:33;;;;;;;3.50;2.22;;;12.10;99.90;;;;;;10097373;28;20024;-63
2022/11/15 03:26:25;;;;;;;7.88;3.13;;;12.10;99.90;;;;;;10110637;28;20044;-62
2022/11/15 03:36:31;;;;;;;5.53;2.78;;;12.10;99.90;;;;;;10090686;28;20495;-65
2022/11/15 03:41:42;;;;;;;4.10;2.45;;;12.00;99.90;;;;;;10082208;28;20236;-66
2022/11/15 03:46:38;;;;;;;4.15;2.38;;;12.00;99.90;;;;;;10074374;28;20029;-67
2022/11/15 03:51:29;;;;;;;4.85;3.15;;;12.00;99.90;;;;;;10077314;28;20087;-67
2022/11/15 03:56:20;;;;;;;5.45;3.10;;;12.00;99.90;;;;;;10077767;28;20120;-66
2022/11/15 04:01:10;;;;;;;4.55;2.42;;;12.10;99.90;;;;;;10087439;28;20038;-62
2022/11/15 04:06:01;;;;;;;4.40;2.50;;;12.00;99.90;;;;;;10095564;28;20035;-61
2022/11/15 04:10:51;;;;;;;5.90;2.67;;;11.90;99.90;;;;;;10090683;28;20035;-68
2022/11/15 04:15:42;;;;;;;3.78;2.38;;;11.90;99.90;;;;;;10080882;28;20064;-68
2022/11/15 04:25:43;;;;;;;4.93;2.80;;;11.90;99.90;;;;;;10098288;28;20056;-63
2022/11/15 04:30:34;;;;;;;4.50;2.40;;;11.90;99.90;;;;;;10092217;28;20032;-60
2022/11/15 04:35:25;;;;;;;3.58;2.50;;;12.00;99.90;;;;;;10094016;28;20339;-61
2022/11/15 04:40:15;;;;;;;5.70;2.92;;;12.00;99.90;;;;;;10085406;28;20044;-68
2022/11/15 04:45:06;;;;;;;3.58;2.33;;;12.00;99.90;;;;;;10090544;28;20436;-60
2022/11/15 04:49:57;;;;;;;3.90;2.72;;;11.90;99.90;;;;;;10084425;28;20043;-61
2022/11/15 04:54:48;;;;;;;4.07;2.10;;;12.00;99.90;;;;;;10076724;28;20115;-61
2022/11/15 04:59:38;;;;;;;4.03;2.33;;;12.00;99.90;;;;;;10078946;28;20872;-66
2022/11/15 05:04:29;;;;;;;3.58;2.53;;;11.90;99.90;;;;;;10092364;28;20037;-62
2022/11/15 05:09:20;;;;;;;3.78;2.10;;;11.90;99.90;;;;;;10098239;28;20021;-61
2022/11/15 05:14:11;;;;;;;4.82;2.05;;;11.90;99.90;;;;;;10106613;28;20124;-61
2022/11/15 05:19:02;;;;;;;3.78;2.00;;;11.90;99.90;;;;;;10102944;28;20492;-59
2022/11/15 05:23:53;;;;;;;3.67;1.77;;;11.90;99.90;;;;;;10093105;28;20343;-68
2022/11/15 05:28:43;;;;;;;4.20;2.53;;;12.00;99.90;;;;;;10091875;28;20052;-67
2022/11/15 05:33:37;;;;;;;7.03;2.47;;;12.00;99.90;;;;;;10093795;28;20041;-67
2022/11/15 05:38:28;;;;;;;4.03;2.17;;;12.10;99.90;;;;;;10093220;28;20104;-64
2022/11/15 05:43:19;;;;;;;3.85;1.70;;;12.10;99.90;;;;;;10092550;28;20025;-62
2022/11/15 05:48:11;;;;;;;5.90;2.22;;;12.10;99.90;;;;;;10090936;28;20383;-62
2022/11/15 05:53:02;;;;;;;4.72;2.22;;;12.10;99.90;;;;;;10090199;28;20029;-61
2022/11/15 05:57:52;;;;;;;4.07;2.13;;;12.10;99.90;;;;;;10077674;28;20048;-62
2022/11/15 06:02:43;;;;;;;2.67;1.85;;;12.00;99.90;;;;;;10093832;28;20044;-67
2022/11/15 06:07:33;;;;;;;5.10;2.50;;;12.00;99.90;;;;;;10095486;28;20082;-66
2022/11/15 06:12:24;;;;;;;3.63;2.22;;;12.00;99.90;;;;;;10098136;28;20024;-67
2022/11/15 06:17:15;;;;;;;4.82;2.90;;;12.00;99.90;;;;;;10092318;28;20332;-60
2022/11/15 06:22:05;;;;;;;3.03;2.30;;;12.00;99.90;;;;;;10080451;28;20056;-59
2022/11/15 06:26:57;;;;;;;4.47;2.20;;;12.00;99.90;;;;;;10073772;28;20290;-60
2022/11/15 06:31:47;;;;;;;3.53;2.40;;;12.00;99.90;;;;;;10078989;28;20125;-60
2022/11/15 06:36:38;;;;;;;3.05;2.45;;;11.90;99.90;;;;;;10066369;28;20072;-60
2022/11/15 06:41:29;;;;;;;3.72;2.30;;;11.90;99.90;;;;;;10093458;28;20028;-60
2022/11/15 06:46:19;;;;;;;4.35;2.58;;;11.90;99.90;;;;;;10084334;28;20244;-59
2022/11/15 06:51:10;;;;;;;2.72;2.22;;;11.90;99.90;;;;;;10078803;28;20029;-60
2022/11/15 06:56:02;;;;;;;5.47;2.47;;;11.90;99.90;;;;;;10078741;28;20042;-59
2022/11/15 07:00:54;;;;;;;5.22;3.20;;;12.00;99.90;;;;;;10078901;28;20014;-61
2022/11/15 07:05:53;;;;;;;3.92;2.22;;;12.00;99.90;;;;;;10068676;28;20013;-60
2022/11/15 07:10:43;;;;;;;2.63;2.10;;;12.00;99.90;;;;;;10070966;28;20096;-61
2022/11/15 07:15:34;;;;;;;3.33;2.47;;;12.00;99.90;;;;;;10094448;28;20394;-59
2022/11/15 07:20:25;;;;;;;5.13;2.53;;;12.00;99.90;;;;;;10100504;28;20051;-61
2022/11/15 07:25:15;;;;;;;3.63;2.13;;;12.00;99.90;;;;;;10118814;28;20029;-60
2022/11/15 07:30:06;;;;;;;4.75;1.88;;;12.10;99.90;;;;;;10101406;28;20033;-60
2022/11/15 07:34:57;;;;;;;3.95;2.10;;;12.10;99.90;;;;;;10093752;28;20100;-60
2022/11/15 07:39:48;;;;;;;4.95;2.17;;;12.20;99.90;;;;;;10078777;28;20110;-60
2022/11/15 07:44:38;;;;;;;3.88;2.50;;;12.20;99.90;;;;;;10094129;28;20035;-63
2022/11/15 07:49:29;;;;;;;6.88;2.42;;;12.20;99.90;;;;;;10090151;28;20124;-60
2022/11/15 07:54:20;;;;;;;4.38;1.80;;;12.30;99.90;;;;;;10089395;28;20089;-65
2022/11/15 07:59:10;;;;;;;4.90;2.85;;;12.30;99.90;;;;;;10081877;28;20044;-58
2022/11/15 08:04:01;;;;;;;3.95;2.20;;;12.30;99.90;;;;;;10085659;28;20047;-59
2022/11/15 08:08:52;;;;;;;3.47;2.40;;;12.30;99.90;;;;;;10067727;28;20134;-60
2022/11/15 08:13:42;;;;;;;2.83;2.00;;;12.30;99.90;;;;;;10074925;28;20607;-60
2022/11/15 08:18:33;;;;;;;3.92;2.17;;;12.30;99.90;;;;;;10085659;28;20506;-63
2022/11/15 08:23:24;;;;;;;5.85;2.15;;;12.40;99.90;;;;;;10091944;28;20029;-62
2022/11/15 08:28:17;;;;;;;3.22;1.70;;;12.40;99.90;;;;;;10079155;28;20028;-61
2022/11/15 08:33:11;;;;;;;4.53;2.70;;;12.40;99.90;;;;;;10069884;28;20048;-59
2022/11/15 08:38:01;;;;;;;2.67;1.83;;;12.40;99.90;;;;;;10069337;28;20033;-58
2022/11/15 08:42:52;;;;;;;4.63;2.00;;;12.60;99.90;;;;;;10085022;28;20043;-59
2022/11/15 08:47:43;;;;;;;2.70;1.80;;;12.60;99.90;;;;;;10066368;28;20369;-59
2022/11/15 08:52:34;;;;;;;4.15;1.95;;;12.70;99.90;;;;;;10075143;28;20021;-61
2022/11/15 08:57:24;;;;;;;3.70;2.33;;;12.70;99.90;;;;;;10066542;28;20454;-59
2022/11/15 09:02:16;;;;;;;2.85;1.83;;;12.80;99.90;;;;;;10081424;28;20021;-62
2022/11/15 09:07:06;;;;;;;4.03;1.98;;;12.80;99.90;;;;;;10078629;28;20371;-60
2022/11/15 09:11:57;;;;;;;4.10;1.73;;;12.80;99.90;;;;;;10069145;28;20092;-60
2022/11/15 09:16:48;;;;;;;3.10;1.73;;;12.90;99.90;;;;;;10089927;28;20040;-63
2022/11/15 09:21:41;;;;;;;3.45;1.55;;;12.90;99.90;;;;;;10089511;28;20199;-58
2022/11/15 09:26:32;;;;;;;2.92;1.92;;;12.90;99.90;;;;;;10063403;28;20502;-55
2022/11/15 09:31:23;;;;;;;2.72;1.60;;;13.00;99.90;;;;;;10064462;28;20041;-57
2022/11/15 09:36:13;;;;;;;2.67;1.70;;;13.00;99.90;;;;;;10072869;28;20463;-55
2022/11/15 09:41:13;;;;;;;3.70;1.65;;;13.00;99.90;;;;;;10074870;28;20032;-57
2022/11/15 09:46:38;;;;;;;4.35;1.73;;;13.00;99.90;;;;;;10086806;28;20049;-55
2022/11/15 09:51:47;;;;;;;4.15;2.15;;;13.00;99.90;;;;;;10086507;28;20526;-60
2022/11/15 09:56:42;;;;;;;4.25;2.35;;;13.10;99.90;;;;;;10076184;28;20208;-59
2022/11/15 10:01:38;;;;;;;3.55;2.10;;;13.00;99.90;;;;;;10075928;28;20101;-57
2022/11/15 10:06:31;;;;;;;5.63;2.33;;;12.90;99.90;;;;;;10081673;28;20028;-59
2022/11/15 10:11:29;;;;;;;4.68;2.10;;;13.00;99.90;;;;;;10084239;28;20044;-60
2022/11/15 10:16:25;;;;;;;3.65;2.17;;;12.90;99.90;;;;;;10078131;28;20411;-67
2022/11/15 10:21:25;;;;;;;3.80;2.28;;;13.10;99.90;;;;;;10078309;28;20088;-63
2022/11/15 10:26:17;;;;;;;3.10;2.17;;;13.20;99.90;;;;;;10083884;28;20176;-60
2022/11/15 10:31:28;;;;;;;2.90;2.35;;;13.30;99.90;;;;;;10088235;28;20068;-61
2022/11/15 10:36:25;;;;;;;2.78;2.22;;;13.40;99.90;;;;;;10077461;28;20052;-60
2022/11/15 10:41:37;;;;;;;6.05;3.90;;;13.50;99.90;;;;;;10078988;28;20049;-59
2022/11/15 10:46:28;;;;;;;4.55;2.25;;;13.60;99.90;;;;;;10077620;28;20054;-63
2022/11/15 10:51:28;;;;;;;3.75;2.55;;;13.80;99.90;;;;;;10071131;28;20060;-65
2022/11/15 10:56:21;;;;;;;6.32;3.08;;;13.80;99.90;;;;;;10057230;28;20041;-59
2022/11/15 11:01:15;;;;;;;4.65;2.65;;;13.90;99.90;;;;;;10078035;28;20037;-61
2022/11/15 11:06:12;;;;;;;4.95;3.03;;;14.00;99.90;;;;;;10071677;28;20025;-63
2022/11/15 11:11:04;;;;;;;4.93;3.28;;;14.00;99.90;;;;;;10074019;28;20029;-60
2022/11/15 11:16:09;;;;;;;3.55;2.35;;;14.00;99.90;;;;;;10080578;28;20499;-59
2022/11/15 11:21:09;;;;;;;7.07;3.22;;;13.90;99.90;;;;;;10070836;28;20049;-60
2022/11/15 11:26:24;;;;;;;2.88;1.80;;;13.90;99.90;;;;;;10057411;28;20076;-60
2022/11/15 11:31:50;;;;;;;2.47;1.70;;;14.00;99.90;;;;;;10085394;28;20225;-61
2022/11/15 11:36:56;;;;;;;3.30;1.77;;;14.10;99.90;;;;;;10042841;28;20072;-64
2022/11/15 11:42:01;;;;;;;4.07;2.20;;;14.00;99.90;;;;;;10085192;28;20257;-61
2022/11/15 11:46:57;;;;;;;3.88;2.22;;;14.10;99.90;;;;;;10078496;28;20111;-64
2022/11/15 11:52:08;;;;;;;3.47;2.10;;;14.20;99.90;;;;;;10087466;28;20022;-63
2022/11/15 11:57:02;;;;;;;4.55;1.63;;;14.30;99.90;;;;;;10086183;28;20036;-63
2022/11/15 12:01:52;;;;;;;3.17;2.00;;;14.30;99.90;;;;;;10075259;28;20493;-63
2022/11/15 12:07:20;;;;;;;4.88;1.88;;;14.30;99.90;;;;;;10074602;28;20045;-61
2022/11/15 12:12:36;;;;;;;5.68;2.20;;;14.50;99.90;;;;;;10092708;28;20408;-61
2022/11/15 12:17:32;;;;;;;2.25;1.40;;;14.50;99.90;;;;;;10082984;28;20036;-61
2022/11/15 12:22:27;;;;;;;2.50;1.85;;;14.40;99.90;;;;;;10082314;28;20033;-62
2022/11/15 12:27:33;;;;;;;3.05;1.73;;;14.30;99.90;;;;;;10088320;28;20039;-62
2022/11/15 12:32:34;;;;;;;4.95;2.33;;;14.50;99.90;;;;;;10075903;28;20037;-61
2022/11/15 12:37:48;;;;;;;4.03;2.60;;;14.50;99.90;;;;;;10094160;28;20152;-62
2022/11/15 12:42:42;;;;;;;5.88;2.15;;;14.60;99.90;;;;;;10105776;28;20040;-63
2022/11/15 12:47:33;;;;;;;2.35;1.48;;;14.50;99.90;;;;;;10086835;28;20359;-62
2022/11/15 12:52:24;;;;;;;2.10;1.33;;;14.50;99.90;;;;;;10080679;28;20031;-64
2022/11/15 12:57:14;;;;;;;2.25;1.27;;;14.50;99.90;;;;;;10081418;28;20522;-63
2022/11/15 13:02:41;;;;;;;2.50;1.50;;;14.50;99.90;;;;;;10077125;28;20043;-60
2022/11/15 13:07:35;;;;;;;2.65;1.67;;;14.50;99.90;;;;;;10078273;28;20097;-61
2022/11/15 13:12:25;;;;;;;3.63;1.65;;;14.40;99.90;;;;;;10089682;28;20066;-63
2022/11/15 13:17:19;;;;;;;1.88;1.27;;;14.40;99.90;;;;;;10082167;28;20460;-60
2022/11/15 13:27:21;;;;;;;3.42;1.77;;;14.30;99.90;;;;;;10077624;28;20115;-62
2022/11/15 13:32:14;;;;;;;2.90;1.60;;;14.30;99.90;;;;;;10057857;28;20091;-60
2022/11/15 13:37:21;;;;;;;4.93;1.75;;;14.40;99.90;;;;;;10076314;28;20589;-60
2022/11/15 13:42:17;;;;;;;1.85;1.40;;;14.30;99.90;;;;;;10092861;28;20186;-60
2022/11/15 13:47:18;;;;;;;3.33;1.48;;;14.30;99.90;;;;;;10075052;28;20032;-61
2022/11/15 13:52:14;;;;;;;3.58;2.25;;;14.30;99.90;;;;;;10091803;28;20036;-64
2022/11/15 13:57:16;;;;;;;;;;;14.30;99.90;;;;;;10080941;28;20186;-66
2022/11/15 14:02:19;;;;;;;2.70;1.70;;;14.40;99.90;;;;;;10087923;28;19913;-62
2022/11/15 14:07:21;;;;;;;3.95;1.63;;;14.30;99.90;;;;;;10080559;28;20032;-61
2022/11/15 14:12:50;;;;;;;3.83;1.63;;;14.20;99.90;;;;;;10083475;28;20492;-61
2022/11/15 14:17:41;;;;;;;3.10;2.03;;;14.10;99.90;;;;;;10049347;28;20140;-61
2022/11/15 14:22:31;;;;;;;3.10;1.88;;;14.10;99.90;;;;;;10068595;28;20120;-63
2022/11/15 14:27:28;;;;;;;3.85;2.35;;;14.10;99.90;;;;;;10065087;28;20502;-61
2022/11/15 14:32:27;;;;;;;4.07;1.67;;;14.10;99.90;;;;;;10066574;28;20025;-60
2022/11/15 14:37:24;;;;;;;2.63;1.80;;;14.20;99.90;;;;;;10066896;28;20045;-61
2022/11/15 14:42:15;;;;;;;2.58;1.83;;;14.10;99.90;;;;;;10063568;28;20032;-60
2022/11/15 14:47:06;;;;;;;3.35;1.60;;;14.20;99.90;;;;;;10068337;28;20028;-61
2022/11/15 14:51:57;;;;;;;2.65;1.83;;;14.10;99.90;;;;;;10062137;28;20028;-61
2022/11/15 14:56:48;;;;;;;3.10;1.63;;;14.20;99.90;;;;;;10066766;28;20439;-61
2022/11/15 15:01:39;;;;;;;2.65;1.95;;;14.20;99.90;;;;;;10063406;28;20045;-60
2022/11/15 15:06:30;;;;;;;7.03;3.50;;;14.10;99.90;;;;;;10066267;28;20036;-63
2022/11/15 15:11:28;;;;;;;3.47;2.13;;;14.10;99.90;;;;;;10074522;28;20461;-62
2022/11/15 15:16:19;;;;;;;4.43;2.13;;;14.00;99.90;;;;;;10061062;28;20155;-63
2022/11/15 15:21:23;;;;;;;2.90;2.00;;;14.00;99.90;;;;;;10062519;28;20145;-63
2022/11/15 15:26:14;;;;;;;5.10;2.03;;;13.90;99.90;;;;;;10057532;28;20037;-61
2022/11/15 15:31:05;;;;;;;2.70;2.17;;;13.80;99.90;;;;;;10062392;28;20038;-62
2022/11/15 15:35:56;;;;;;;4.43;2.67;;;13.80;99.90;;;;;;10065419;28;20060;-61
2022/11/15 15:40:47;;;;;;;2.63;2.00;;;13.80;99.90;;;;;;10073088;28;20478;-63
2022/11/15 15:45:39;;;;;;;2.70;1.67;;;13.80;99.90;;;;;;10082512;28;20028;-63
2022/11/15 15:50:33;;;;;;;4.35;1.88;;;13.70;99.90;;;;;;10079696;28;20021;-65
2022/11/15 15:55:24;;;;;;;3.22;2.38;;;13.70;99.90;;;;;;10081429;28;20115;-63
2022/11/15 16:00:16;;;;;;;3.60;1.73;;;13.70;99.90;;;;;;10085409;28;20070;-65
2022/11/15 16:05:08;;;;;;;3.63;2.22;;;13.70;99.90;;;;;;10083396;28;20029;-61
2022/11/15 16:10:02;;;;;;;6.22;2.35;;;13.70;99.90;;;;;;10073373;28;20028;-61
2022/11/15 16:14:53;;;;;;;4.53;2.45;;;13.70;99.90;;;;;;10080614;28;20033;-61
2022/11/15 16:19:44;;;;;;;5.65;1.83;;;13.70;99.90;;;;;;10083155;28;20029;-61
2022/11/15 16:24:35;;;;;;;4.35;2.45;;;13.70;99.90;;;;;;10077252;28;20626;-60
2022/11/15 16:29:26;;;;;;;4.57;2.55;;;13.70;99.90;;;;;;10080218;28;20029;-62
2022/11/15 16:34:17;;;;;;;5.40;2.40;;;13.70;99.90;;;;;;10080603;28;20504;-60
2022/11/15 16:39:12;;;;;;;4.20;2.63;;;13.70;99.90;;;;;;10079495;28;20450;-60
2022/11/15 16:44:03;;;;;;;6.22;3.00;;;13.70;99.90;;;;;;10080852;28;20028;-60
2022/11/15 16:48:54;;;;;;;7.80;2.92;;;13.60;99.90;;;;;;10082281;28;20087;-61
2022/11/15 16:53:45;;;;;;;4.88;2.90;;;13.60;99.90;;;;;;10083575;28;20036;-61
2022/11/15 16:58:36;;;;;;;3.72;2.35;;;13.70;99.90;;;;;;10081973;28;20030;-64
2022/11/15 17:03:27;;;;;;;7.60;2.90;;;13.70;99.90;;;;;;10077690;28;20030;-64
2022/11/15 17:08:20;;;;;;;5.28;2.72;;;13.70;99.90;;;;;;10077230;28;20500;-65
2022/11/15 17:13:12;;;;;;;8.13;2.72;;;13.70;99.90;;;;;;10078113;28;20025;-63
2022/11/15 17:18:03;;;;;;;4.72;3.47;;;13.70;99.90;;;;;;10077854;28;20471;-64
2022/11/15 17:22:55;;;;;;;5.20;2.50;;;13.70;99.90;;;;;;10074316;28;20053;-63
2022/11/15 17:27:46;;;;;;;6.72;3.10;;;13.70;99.90;;;;;;10076780;28;20055;-63
2022/11/15 17:32:37;;;;;;;7.10;3.45;;;13.60;99.90;;;;;;10073155;28;20032;-64
2022/11/15 17:37:27;;;;;;;7.53;3.35;;;13.60;99.90;;;;;;10064091;28;20058;-62
2022/11/15 17:42:18;;;;;;;5.22;3.20;;;13.60;99.90;;;;;;10080937;28;20037;-64
2022/11/15 17:47:09;;;;;;;4.50;3.10;;;13.60;99.90;;;;;;10081849;28;20491;-64
2022/11/15 17:51:59;;;;;;;6.30;3.25;;;13.60;99.90;;;;;;10087008;28;20021;-62
2022/11/15 17:56:50;;;;;;;5.20;2.80;;;13.60;99.90;;;;;;10069646;28;20045;-64
2022/11/15 18:01:41;;;;;;;5.15;1.98;;;13.70;99.90;;;;;;10087647;28;20112;-65
2022/11/15 18:06:33;;;;;;;6.15;3.38;;;13.60;99.90;;;;;;10089842;28;20029;-63
2022/11/15 18:11:29;;;;;;;6.35;3.00;;;13.70;99.90;;;;;;10081677;28;20508;-63
2022/11/15 18:16:25;;;;;;;9.05;3.40;;;13.70;99.90;;;;;;10079412;28;20086;-63
2022/11/15 18:21:21;;;;;;;5.75;3.47;;;13.60;99.90;;;;;;10081873;28;20024;-65
2022/11/15 18:26:14;;;;;;;;;;;13.60;99.90;;;;;;10085172;28;20120;-66
2022/11/15 18:31:16;;;;;;;8.35;3.78;;;13.50;99.90;;;;;;10084211;28;19901;-63
2022/11/15 18:36:09;;;;;;;4.80;3.38;;;13.50;99.90;;;;;;10087487;28;20119;-66
2022/11/15 18:41:08;;;;;;;6.22;3.35;;;13.50;99.90;;;;;;10095174;28;20196;-64
2022/11/15 18:46:11;;;;;;;4.60;3.85;;;13.50;99.90;;;;;;10085972;28;20155;-64
2022/11/15 18:51:08;;;;;;;6.93;4.05;;;13.40;99.90;;;;;;10070994;28;20148;-64
2022/11/15 18:56:09;;;;;;;6.90;3.65;;;13.40;99.90;;;;;;10071462;28;20033;-64
2022/11/15 19:01:08;;;;;;;6.47;3.55;;;13.30;99.90;;;;;;10090549;28;20033;-62
2022/11/15 19:06:11;;;;;;;5.20;3.75;;;13.40;99.90;;;;;;10090726;28;20457;-63
2022/11/15 19:11:13;;;;;;;10.32;3.83;;;13.40;99.90;;;;;;10089436;28;20027;-63
2022/11/15 19:16:05;;;;;;;5.80;3.72;;;13.30;99.90;;;;;;10098639;28;20032;-64
2022/11/15 19:20:56;;;;;;;5.95;4.15;;;13.30;99.90;;;;;;10095002;28;20467;-63
2022/11/15 19:25:58;;;;;;;7.53;4.45;;;13.20;99.90;;;;;;10092434;28;20029;-64
2022/11/15 19:30:49;;;;;;;5.95;3.92;;;13.20;99.90;;;;;;10087363;28;20483;-62
2022/11/15 19:35:39;;;;;;;6.78;3.63;;;13.10;99.90;;;;;;10082636;28;20041;-64
2022/11/15 19:40:32;;;;;;;8.48;4.60;;;13.20;99.90;;;;;;10093792;28;20306;-67
2022/11/15 19:45:23;;;;;;;9.20;4.38;;;13.20;99.90;;;;;;10095670;28;20020;-62
2022/11/15 19:50:13;;;;;;;7.55;4.72;;;13.20;99.90;;;;;;10105462;28;20224;-65
2022/11/15 19:55:05;;;;;;;8.68;4.53;;;13.20;99.90;;;;;;10097938;28;20300;-61
2022/11/15 19:59:55;;;;;;;6.90;4.20;;;13.20;99.90;;;;;;10088286;28;20487;-63
2022/11/15 20:04:46;;;;;;;7.57;4.57;;;13.20;99.90;;;;;;10088809;28;20037;-64
2022/11/15 20:09:37;;;;;;;5.85;4.32;;;13.10;99.90;;;;;;10085258;28;20021;-65
2022/11/15 20:14:29;;;;;;;5.25;3.90;;;13.10;99.90;;;;;;10081564;28;20033;-63
2022/11/15 20:19:20;;;;;;;7.90;4.20;;;13.10;99.90;;;;;;10075590;28;20033;-62
2022/11/15 20:24:11;;;;;;;4.43;3.42;;;13.10;99.90;;;;;;10088377;28;20032;-60
2022/11/15 20:29:02;;;;;;;9.20;4.22;;;13.10;99.90;;;;;;10072447;28;20034;-60
2022/11/15 20:33:53;;;;;;;6.47;3.53;;;13.00;99.90;;;;;;10071620;28;20110;-63
2022/11/15 20:38:44;;;;;;;5.90;3.88;;;13.00;99.90;;;;;;10072528;28;20449;-62
2022/11/15 20:43:35;;;;;;;8.15;3.83;;;13.00;99.90;;;;;;10081159;28;20108;-62
2022/11/15 20:48:26;;;;;;;7.45;4.38;;;13.00;99.90;;;;;;10082325;28;20025;-62
2022/11/15 20:53:18;;;;;;;8.75;4.57;;;13.00;99.90;;;;;;10079636;28;20487;-61
2022/11/15 20:58:10;;;;;;;5.93;4.47;;;13.00;99.90;;;;;;10077048;28;20044;-62
2022/11/15 21:03:05;;;;;;;4.85;3.50;;;13.00;99.90;;;;;;10085280;28;20036;-61
2022/11/15 21:07:55;;;;;;;5.43;3.63;;;12.90;99.90;;;;;;10079679;28;20036;-62
2022/11/15 21:12:46;;;;;;;7.15;4.03;;;12.90;99.90;;;;;;10072225;28;20040;-61
2022/11/15 21:17:37;;;;;;;6.15;3.88;;;12.80;99.90;;;;;;10081011;28;20582;-62
2022/11/15 21:22:28;;;;;;;8.40;4.10;;;12.70;99.90;;;;;;10071224;28;20029;-62
2022/11/15 21:27:20;;;;;;;7.15;3.95;;;12.70;99.90;;;;;;10067015;28;20048;-63
2022/11/15 21:32:10;;;;;;;5.75;3.63;;;12.60;99.90;;;;;;10077556;28;20025;-61
2022/11/15 21:37:01;;;;;;;9.30;3.92;;;12.70;99.90;;;;;;10076729;28;20048;-62
2022/11/15 21:41:52;;;;;;;6.70;4.28;;;12.60;99.90;;;;;;10079956;28;20025;-63
2022/11/15 21:46:43;;;;;;;6.80;4.43;;;12.60;99.90;;;;;;10066794;28;20036;-60
2022/11/15 21:51:33;;;;;;;7.38;4.05;;;12.50;99.90;;;;;;10072163;28;20104;-60
2022/11/15 21:56:26;;;;;;;6.00;4.18;;;12.40;99.90;;;;;;10060606;28;20033;-60
2022/11/15 22:06:26;;;;;;;7.30;3.90;;;12.50;99.90;;;;;;10061994;28;20064;-60
2022/11/15 22:11:16;;;;;;;7.32;3.63;;;12.40;99.90;;;;;;10073001;28;20481;-61
2022/11/15 22:16:08;;;;;;;6.43;3.65;;;12.40;99.90;;;;;;10067370;28;20037;-60
2022/11/15 22:21:01;;;;;;;8.70;4.20;;;12.30;99.90;;;;;;10085322;28;20036;-62
2022/11/15 22:25:52;;;;;;;8.00;3.78;;;12.30;99.90;;;;;;10070473;28;20128;-64
2022/11/15 22:30:44;;;;;;;6.35;3.92;;;12.20;99.90;;;;;;10072536;28;20021;-61
2022/11/15 22:35:35;;;;;;;7.18;3.90;;;12.20;99.90;;;;;;10074512;28;20533;-61
2022/11/15 22:40:26;;;;;;;5.38;3.95;;;12.20;99.90;;;;;;10073819;28;20027;-59
2022/11/15 22:45:17;;;;;;;6.75;3.50;;;12.20;99.90;;;;;;10081760;28;20029;-59
2022/11/15 22:50:07;;;;;;;5.45;3.35;;;12.20;99.90;;;;;;10058039;28;20503;-63
2022/11/15 22:54:58;;;;;;;6.45;3.42;;;12.20;99.90;;;;;;10075681;28;20049;-60
2022/11/15 22:59:49;;;;;;;5.80;2.80;;;12.30;99.90;;;;;;10075012;28;20387;-60
2022/11/15 23:04:39;;;;;;;4.50;2.78;;;12.30;99.90;;;;;;10074101;28;20503;-61
2022/11/15 23:09:30;;;;;;;6.82;4.10;;;12.20;99.90;;;;;;10079313;28;20168;-62
2022/11/15 23:14:20;;;;;;;5.03;3.08;;;12.20;99.90;;;;;;10084092;28;20502;-62
2022/11/15 23:19:12;;;;;;;5.68;3.95;;;12.10;99.90;;;;;;10074309;28;20033;-63
2022/11/15 23:24:04;;;;;;;6.57;3.80;;;12.00;99.90;;;;;;10069266;28;20505;-62
2022/11/15 23:28:55;;;;;;;7.60;4.22;;;12.00;99.90;;;;;;10078020;28;20099;-63
2022/11/15 23:33:57;;;;;;;6.25;4.07;;;12.10;99.90;;;;;;10048450;28;20076;-63
2022/11/15 23:38:48;;;;;;;5.72;4.05;;;12.00;99.90;;;;;;10068426;28;20029;-63
2022/11/15 23:43:39;;;;;;;6.88;3.60;;;12.00;99.90;;;;;;10064264;28;20415;-64
2022/11/15 23:48:29;;;;;;;3.03;2.72;;;12.10;99.90;;;;;;10072748;28;20118;-65
2022/11/15 23:53:20;;;;;;;5.28;3.22;;;12.10;99.90;;;;;;10059912;28;20108;-64
2022/11/15 23:58:11;;;;;;;5.45;2.90;;;12.10;99.90;;;;;;10066737;28;20997;-63
